sensor_id;sensor_type;location;lat;lon;timestamp;temperature;humidity
26035;DHT22;13809;48.632;11.576;2023-02-21T00:00:03;10.20;30.90
26035;DHT22;13809;48.632;11.576;2023-02-21T00:05:25;10.10;30.90
26035;DHT22;13809;48.632;11.576;2023-02-21T00:10:45;10.00;31.00
26035;DHT22;13809;48.632;11.576;2023-02-21T00:16:06;10.00;31.00
26035;DHT22;13809;48.632;11.576;2023-02-21T00:21:28;9.80;31.80
26035;DHT22;13809;48.632;11.576;2023-02-21T00:26:49;9.80;32.00
26035;DHT22;13809;48.632;11.576;2023-02-21T00:32:09;9.70;31.90
26035;DHT22;13809;48.632;11.576;2023-02-21T00:37:31;9.60;32.00
26035;DHT22;13809;48.632;11.576;2023-02-21T00:42:52;9.50;32.10
26035;DHT22;13809;48.632;11.576;2023-02-21T00:48:12;9.50;32.00
26035;DHT22;13809;48.632;11.576;2023-02-21T00:53:34;9.40;32.10
26035;DHT22;13809;48.632;11.576;2023-02-21T00:58:55;9.30;32.20
26035;DHT22;13809;48.632;11.576;2023-02-21T01:04:15;9.30;32.20
26035;DHT22;13809;48.632;11.576;2023-02-21T01:09:37;9.20;32.20
26035;DHT22;13809;48.632;11.576;2023-02-21T01:14:58;9.10;32.40
26035;DHT22;13809;48.632;11.576;2023-02-21T01:20:19;9.10;32.30
26035;DHT22;13809;48.632;11.576;2023-02-21T01:25:41;9.00;32.40
26035;DHT22;13809;48.632;11.576;2023-02-21T01:31:01;9.00;32.50
26035;DHT22;13809;48.632;11.576;2023-02-21T01:36:22;8.90;32.30
26035;DHT22;13809;48.632;11.576;2023-02-21T01:41:44;8.80;32.40
26035;DHT22;13809;48.632;11.576;2023-02-21T01:47:09;8.70;33.10
26035;DHT22;13809;48.632;11.576;2023-02-21T01:52:30;8.50;32.80
26035;DHT22;13809;48.632;11.576;2023-02-21T01:57:53;8.40;32.50
26035;DHT22;13809;48.632;11.576;2023-02-21T02:03:16;8.30;33.00
26035;DHT22;13809;48.632;11.576;2023-02-21T02:08:37;8.20;33.10
26035;DHT22;13809;48.632;11.576;2023-02-21T02:14:11;8.10;33.00
26035;DHT22;13809;48.632;11.576;2023-02-21T02:19:54;8.00;33.60
26035;DHT22;13809;48.632;11.576;2023-02-21T02:25:14;8.00;33.70
26035;DHT22;13809;48.632;11.576;2023-02-21T02:36:05;8.00;33.70
26035;DHT22;13809;48.632;11.576;2023-02-21T02:41:14;8.00;33.40
26035;DHT22;13809;48.632;11.576;2023-02-21T02:46:21;8.00;33.20
26035;DHT22;13809;48.632;11.576;2023-02-21T02:51:27;8.00;33.20
26035;DHT22;13809;48.632;11.576;2023-02-21T02:56:30;7.90;33.10
26035;DHT22;13809;48.632;11.576;2023-02-21T03:01:51;7.80;33.00
26035;DHT22;13809;48.632;11.576;2023-02-21T03:07:04;7.70;33.90
26035;DHT22;13809;48.632;11.576;2023-02-21T03:12:14;7.70;33.90
26035;DHT22;13809;48.632;11.576;2023-02-21T03:17:22;7.80;33.70
26035;DHT22;13809;48.632;11.576;2023-02-21T03:22:29;7.80;33.60
26035;DHT22;13809;48.632;11.576;2023-02-21T03:27:33;7.80;33.60
26035;DHT22;13809;48.632;11.576;2023-02-21T03:32:39;7.70;33.20
26035;DHT22;13809;48.632;11.576;2023-02-21T03:37:48;7.60;33.30
26035;DHT22;13809;48.632;11.576;2023-02-21T03:42:54;7.60;33.60
26035;DHT22;13809;48.632;11.576;2023-02-21T03:47:58;7.50;33.40
26035;DHT22;13809;48.632;11.576;2023-02-21T03:53:02;7.40;33.50
26035;DHT22;13809;48.632;11.576;2023-02-21T03:58:05;7.30;33.70
26035;DHT22;13809;48.632;11.576;2023-02-21T04:03:09;7.30;33.70
26035;DHT22;13809;48.632;11.576;2023-02-21T04:08:14;7.30;33.70
26035;DHT22;13809;48.632;11.576;2023-02-21T04:13:18;7.20;33.70
26035;DHT22;13809;48.632;11.576;2023-02-21T04:18:22;7.20;33.40
26035;DHT22;13809;48.632;11.576;2023-02-21T04:23:26;7.20;33.50
26035;DHT22;13809;48.632;11.576;2023-02-21T04:28:29;7.10;33.90
26035;DHT22;13809;48.632;11.576;2023-02-21T04:33:32;7.00;33.80
26035;DHT22;13809;48.632;11.576;2023-02-21T04:38:37;7.00;33.80
26035;DHT22;13809;48.632;11.576;2023-02-21T04:43:41;7.00;34.10
26035;DHT22;13809;48.632;11.576;2023-02-21T04:48:46;7.00;34.10
26035;DHT22;13809;48.632;11.576;2023-02-21T04:53:52;7.00;34.30
26035;DHT22;13809;48.632;11.576;2023-02-21T04:58:56;7.00;34.50
26035;DHT22;13809;48.632;11.576;2023-02-21T05:03:59;7.00;34.20
26035;DHT22;13809;48.632;11.576;2023-02-21T05:09:04;7.00;34.20
26035;DHT22;13809;48.632;11.576;2023-02-21T05:14:07;7.00;34.40
26035;DHT22;13809;48.632;11.576;2023-02-21T05:19:11;7.00;34.20
26035;DHT22;13809;48.632;11.576;2023-02-21T05:24:16;7.00;34.30
26035;DHT22;13809;48.632;11.576;2023-02-21T05:29:19;7.00;34.40
26035;DHT22;13809;48.632;11.576;2023-02-21T05:34:22;7.00;34.20
26035;DHT22;13809;48.632;11.576;2023-02-21T05:39:27;6.90;34.10
26035;DHT22;13809;48.632;11.576;2023-02-21T05:44:30;6.90;34.40
26035;DHT22;13809;48.632;11.576;2023-02-21T05:49:36;6.90;34.20
26035;DHT22;13809;48.632;11.576;2023-02-21T05:54:40;6.80;34.40
26035;DHT22;13809;48.632;11.576;2023-02-21T05:59:44;6.80;34.30
26035;DHT22;13809;48.632;11.576;2023-02-21T06:04:48;6.70;34.10
26035;DHT22;13809;48.632;11.576;2023-02-21T06:09:53;6.70;34.20
26035;DHT22;13809;48.632;11.576;2023-02-21T06:14:56;6.70;34.40
26035;DHT22;13809;48.632;11.576;2023-02-21T06:20:05;6.60;34.30
26035;DHT22;13809;48.632;11.576;2023-02-21T06:25:10;6.60;34.70
26035;DHT22;13809;48.632;11.576;2023-02-21T06:30:13;6.50;34.60
26035;DHT22;13809;48.632;11.576;2023-02-21T06:35:17;6.50;34.40
26035;DHT22;13809;48.632;11.576;2023-02-21T06:40:21;6.50;34.60
26035;DHT22;13809;48.632;11.576;2023-02-21T06:45:24;6.40;34.90
26035;DHT22;13809;48.632;11.576;2023-02-21T06:50:28;6.40;34.80
26035;DHT22;13809;48.632;11.576;2023-02-21T06:55:33;6.40;35.00
26035;DHT22;13809;48.632;11.576;2023-02-21T07:00:36;6.50;35.40
26035;DHT22;13809;48.632;11.576;2023-02-21T07:05:39;6.50;35.30
26035;DHT22;13809;48.632;11.576;2023-02-21T07:10:44;6.50;35.30
26035;DHT22;13809;48.632;11.576;2023-02-21T07:15:47;6.50;35.80
26035;DHT22;13809;48.632;11.576;2023-02-21T07:20:50;6.50;35.70
26035;DHT22;13809;48.632;11.576;2023-02-21T07:25:55;6.60;35.80
26035;DHT22;13809;48.632;11.576;2023-02-21T07:30:58;6.70;36.10
26035;DHT22;13809;48.632;11.576;2023-02-21T07:36:01;6.70;36.00
26035;DHT22;13809;48.632;11.576;2023-02-21T07:41:05;6.80;36.20
26035;DHT22;13809;48.632;11.576;2023-02-21T07:46:09;7.00;36.60
26035;DHT22;13809;48.632;11.576;2023-02-21T07:51:13;7.10;36.70
26035;DHT22;13809;48.632;11.576;2023-02-21T07:56:18;7.30;36.90
26035;DHT22;13809;48.632;11.576;2023-02-21T08:01:22;7.50;37.40
26035;DHT22;13809;48.632;11.576;2023-02-21T08:06:26;7.70;37.50
26035;DHT22;13809;48.632;11.576;2023-02-21T08:11:31;7.90;37.60
26035;DHT22;13809;48.632;11.576;2023-02-21T08:16:34;8.20;38.80
26035;DHT22;13809;48.632;11.576;2023-02-21T08:21:38;8.50;37.90
26035;DHT22;13809;48.632;11.576;2023-02-21T08:26:47;8.80;38.00
26035;DHT22;13809;48.632;11.576;2023-02-21T08:31:51;9.10;38.30
26035;DHT22;13809;48.632;11.576;2023-02-21T08:36:54;9.40;37.90
26035;DHT22;13809;48.632;11.576;2023-02-21T08:41:59;9.80;37.90
26035;DHT22;13809;48.632;11.576;2023-02-21T08:47:02;10.10;36.90
26035;DHT22;13809;48.632;11.576;2023-02-21T08:52:06;10.40;36.70
26035;DHT22;13809;48.632;11.576;2023-02-21T08:57:10;10.70;36.60
26035;DHT22;13809;48.632;11.576;2023-02-21T09:02:15;11.00;36.70
26035;DHT22;13809;48.632;11.576;2023-02-21T09:07:20;11.30;36.40
26035;DHT22;13809;48.632;11.576;2023-02-21T09:12:25;11.60;35.80
26035;DHT22;13809;48.632;11.576;2023-02-21T09:17:28;11.90;35.60
26035;DHT22;13809;48.632;11.576;2023-02-21T09:22:34;12.20;35.20
26035;DHT22;13809;48.632;11.576;2023-02-21T09:27:41;12.40;35.30
26035;DHT22;13809;48.632;11.576;2023-02-21T09:32:44;12.70;35.00
26035;DHT22;13809;48.632;11.576;2023-02-21T09:37:47;13.00;35.10
26035;DHT22;13809;48.632;11.576;2023-02-21T09:42:53;13.30;34.40
26035;DHT22;13809;48.632;11.576;2023-02-21T09:47:59;13.50;34.00
26035;DHT22;13809;48.632;11.576;2023-02-21T09:53:03;13.70;33.50
26035;DHT22;13809;48.632;11.576;2023-02-21T09:58:11;13.80;33.50
26035;DHT22;13809;48.632;11.576;2023-02-21T10:03:43;13.90;33.10
26035;DHT22;13809;48.632;11.576;2023-02-21T10:08:53;14.00;32.70
26035;DHT22;13809;48.632;11.576;2023-02-21T10:14:05;14.10;32.90
26035;DHT22;13809;48.632;11.576;2023-02-21T10:19:17;14.30;32.70
26035;DHT22;13809;48.632;11.576;2023-02-21T10:24:23;14.50;32.30
26035;DHT22;13809;48.632;11.576;2023-02-21T10:29:36;14.60;33.10
26035;DHT22;13809;48.632;11.576;2023-02-21T10:34:40;14.70;31.80
26035;DHT22;13809;48.632;11.576;2023-02-21T10:39:50;14.80;32.10
26035;DHT22;13809;48.632;11.576;2023-02-21T10:44:56;15.00;32.30
26035;DHT22;13809;48.632;11.576;2023-02-21T10:50:03;15.10;32.20
26035;DHT22;13809;48.632;11.576;2023-02-21T10:55:14;15.20;31.40
26035;DHT22;13809;48.632;11.576;2023-02-21T11:00:35;15.30;31.20
26035;DHT22;13809;48.632;11.576;2023-02-21T11:05:39;15.40;31.20
26035;DHT22;13809;48.632;11.576;2023-02-21T11:10:43;15.50;31.80
26035;DHT22;13809;48.632;11.576;2023-02-21T11:15:48;15.60;32.00
26035;DHT22;13809;48.632;11.576;2023-02-21T11:21:13;15.70;31.40
26035;DHT22;13809;48.632;11.576;2023-02-21T11:26:18;15.70;30.60
26035;DHT22;13809;48.632;11.576;2023-02-21T11:31:27;15.80;31.20
26035;DHT22;13809;48.632;11.576;2023-02-21T11:36:32;15.80;29.90
26035;DHT22;13809;48.632;11.576;2023-02-21T11:41:37;15.80;30.80
26035;DHT22;13809;48.632;11.576;2023-02-21T11:46:50;15.80;31.00
26035;DHT22;13809;48.632;11.576;2023-02-21T11:51:58;16.00;30.80
26035;DHT22;13809;48.632;11.576;2023-02-21T11:57:05;16.10;30.70
26035;DHT22;13809;48.632;11.576;2023-02-21T12:08:35;16.20;29.00
26035;DHT22;13809;48.632;11.576;2023-02-21T12:13:46;16.20;30.00
26035;DHT22;13809;48.632;11.576;2023-02-21T12:19:04;16.30;30.30
26035;DHT22;13809;48.632;11.576;2023-02-21T12:24:23;16.50;30.00
26035;DHT22;13809;48.632;11.576;2023-02-21T12:29:38;16.50;30.10
26035;DHT22;13809;48.632;11.576;2023-02-21T12:35:13;16.60;30.60
26035;DHT22;13809;48.632;11.576;2023-02-21T12:40:28;16.70;29.90
26035;DHT22;13809;48.632;11.576;2023-02-21T12:45:45;16.70;29.80
26035;DHT22;13809;48.632;11.576;2023-02-21T12:50:54;16.70;29.80
26035;DHT22;13809;48.632;11.576;2023-02-21T12:56:06;16.80;30.50
26035;DHT22;13809;48.632;11.576;2023-02-21T13:01:14;16.80;30.60
26035;DHT22;13809;48.632;11.576;2023-02-21T13:06:26;16.80;30.20
26035;DHT22;13809;48.632;11.576;2023-02-21T13:11:37;16.90;30.20
26035;DHT22;13809;48.632;11.576;2023-02-21T13:16:44;16.90;29.70
26035;DHT22;13809;48.632;11.576;2023-02-21T13:21:57;17.00;30.40
26035;DHT22;13809;48.632;11.576;2023-02-21T13:32:52;17.10;29.80
26035;DHT22;13809;48.632;11.576;2023-02-21T13:37:57;17.10;29.90
26035;DHT22;13809;48.632;11.576;2023-02-21T13:43:05;17.20;30.00
26035;DHT22;13809;48.632;11.576;2023-02-21T13:48:29;17.20;29.50
26035;DHT22;13809;48.632;11.576;2023-02-21T13:54:07;17.30;29.50
26035;DHT22;13809;48.632;11.576;2023-02-21T13:59:30;17.40;29.10
26035;DHT22;13809;48.632;11.576;2023-02-21T14:05:00;17.40;29.40
26035;DHT22;13809;48.632;11.576;2023-02-21T14:10:17;17.40;28.80
26035;DHT22;13809;48.632;11.576;2023-02-21T14:15:39;17.50;29.40
26035;DHT22;13809;48.632;11.576;2023-02-21T14:20:47;17.50;29.40
26035;DHT22;13809;48.632;11.576;2023-02-21T14:25:56;17.60;29.30
26035;DHT22;13809;48.632;11.576;2023-02-21T14:31:02;17.60;29.10
26035;DHT22;13809;48.632;11.576;2023-02-21T14:36:07;17.60;29.60
26035;DHT22;13809;48.632;11.576;2023-02-21T14:41:31;17.60;29.50
26035;DHT22;13809;48.632;11.576;2023-02-21T14:47:06;17.70;29.10
26035;DHT22;13809;48.632;11.576;2023-02-21T14:52:57;17.80;29.30
26035;DHT22;13809;48.632;11.576;2023-02-21T15:04:02;17.80;29.60
26035;DHT22;13809;48.632;11.576;2023-02-21T15:09:11;17.90;29.50
26035;DHT22;13809;48.632;11.576;2023-02-21T15:14:16;18.00;29.30
26035;DHT22;13809;48.632;11.576;2023-02-21T15:19:30;18.00;29.40
26035;DHT22;13809;48.632;11.576;2023-02-21T15:24:33;18.00;29.10
26035;DHT22;13809;48.632;11.576;2023-02-21T15:29:36;18.00;29.40
26035;DHT22;13809;48.632;11.576;2023-02-21T15:34:42;18.00;29.20
26035;DHT22;13809;48.632;11.576;2023-02-21T15:39:49;18.00;29.00
26035;DHT22;13809;48.632;11.576;2023-02-21T15:44:58;18.00;29.00
26035;DHT22;13809;48.632;11.576;2023-02-21T15:50:10;18.00;29.10
26035;DHT22;13809;48.632;11.576;2023-02-21T15:55:26;17.90;28.70
26035;DHT22;13809;48.632;11.576;2023-02-21T16:00:30;17.90;29.10
26035;DHT22;13809;48.632;11.576;2023-02-21T16:05:35;17.90;29.10
26035;DHT22;13809;48.632;11.576;2023-02-21T16:10:38;17.80;29.10
26035;DHT22;13809;48.632;11.576;2023-02-21T16:15:42;17.80;29.20
26035;DHT22;13809;48.632;11.576;2023-02-21T16:20:57;17.80;29.30
26035;DHT22;13809;48.632;11.576;2023-02-21T16:26:02;17.70;29.00
26035;DHT22;13809;48.632;11.576;2023-02-21T16:31:25;17.60;29.30
26035;DHT22;13809;48.632;11.576;2023-02-21T16:36:31;17.50;29.30
26035;DHT22;13809;48.632;11.576;2023-02-21T16:41:35;17.40;29.40
26035;DHT22;13809;48.632;11.576;2023-02-21T16:46:39;17.30;29.50
26035;DHT22;13809;48.632;11.576;2023-02-21T16:51:43;17.30;29.60
26035;DHT22;13809;48.632;11.576;2023-02-21T16:56:49;17.20;29.50
26035;DHT22;13809;48.632;11.576;2023-02-21T17:01:53;17.00;29.50
26035;DHT22;13809;48.632;11.576;2023-02-21T17:06:59;16.80;29.50
26035;DHT22;13809;48.632;11.576;2023-02-21T17:12:04;16.70;29.50
26035;DHT22;13809;48.632;11.576;2023-02-21T17:17:07;16.50;29.50
26035;DHT22;13809;48.632;11.576;2023-02-21T17:22:12;16.40;29.60
26035;DHT22;13809;48.632;11.576;2023-02-21T17:27:15;16.30;29.70
26035;DHT22;13809;48.632;11.576;2023-02-21T17:32:18;16.20;29.70
26035;DHT22;13809;48.632;11.576;2023-02-21T17:37:23;16.10;29.70
26035;DHT22;13809;48.632;11.576;2023-02-21T17:42:26;16.00;29.70
26035;DHT22;13809;48.632;11.576;2023-02-21T17:47:29;15.90;29.70
26035;DHT22;13809;48.632;11.576;2023-02-21T17:52:33;15.70;29.60
26035;DHT22;13809;48.632;11.576;2023-02-21T17:57:37;15.60;29.70
26035;DHT22;13809;48.632;11.576;2023-02-21T18:02:41;15.50;29.80
26035;DHT22;13809;48.632;11.576;2023-02-21T18:07:47;15.40;29.90
26035;DHT22;13809;48.632;11.576;2023-02-21T18:12:51;15.30;30.00
26035;DHT22;13809;48.632;11.576;2023-02-21T18:17:54;15.10;29.80
26035;DHT22;13809;48.632;11.576;2023-02-21T18:22:59;15.00;29.80
26035;DHT22;13809;48.632;11.576;2023-02-21T18:28:03;14.90;29.90
26035;DHT22;13809;48.632;11.576;2023-02-21T18:33:07;14.80;29.90
26035;DHT22;13809;48.632;11.576;2023-02-21T18:38:11;14.70;30.00
26035;DHT22;13809;48.632;11.576;2023-02-21T18:43:18;14.60;30.00
26035;DHT22;13809;48.632;11.576;2023-02-21T18:48:23;14.50;30.00
26035;DHT22;13809;48.632;11.576;2023-02-21T18:53:28;14.40;30.00
26035;DHT22;13809;48.632;11.576;2023-02-21T18:58:31;14.20;30.10
26035;DHT22;13809;48.632;11.576;2023-02-21T19:03:34;14.10;30.00
26035;DHT22;13809;48.632;11.576;2023-02-21T19:08:39;14.00;30.20
26035;DHT22;13809;48.632;11.576;2023-02-21T19:13:42;13.90;30.20
26035;DHT22;13809;48.632;11.576;2023-02-21T19:18:48;13.70;30.00
26035;DHT22;13809;48.632;11.576;2023-02-21T19:23:53;13.50;30.20
26035;DHT22;13809;48.632;11.576;2023-02-21T19:28:56;13.40;30.70
26035;DHT22;13809;48.632;11.576;2023-02-21T19:33:59;13.30;30.60
26035;DHT22;13809;48.632;11.576;2023-02-21T19:39:04;13.20;30.50
26035;DHT22;13809;48.632;11.576;2023-02-21T19:44:07;13.00;30.40
26035;DHT22;13809;48.632;11.576;2023-02-21T19:49:11;12.90;30.30
26035;DHT22;13809;48.632;11.576;2023-02-21T19:54:22;12.70;30.10
26035;DHT22;13809;48.632;11.576;2023-02-21T19:59:27;12.60;31.00
26035;DHT22;13809;48.632;11.576;2023-02-21T20:04:30;12.40;30.70
26035;DHT22;13809;48.632;11.576;2023-02-21T20:09:35;12.40;30.80
26035;DHT22;13809;48.632;11.576;2023-02-21T20:14:39;12.40;31.10
26035;DHT22;13809;48.632;11.576;2023-02-21T20:19:46;12.30;30.80
26035;DHT22;13809;48.632;11.576;2023-02-21T20:24:51;12.20;30.60
26035;DHT22;13809;48.632;11.576;2023-02-21T20:29:54;12.10;30.90
26035;DHT22;13809;48.632;11.576;2023-02-21T20:34:57;12.00;30.70
26035;DHT22;13809;48.632;11.576;2023-02-21T20:40:02;11.90;30.90
26035;DHT22;13809;48.632;11.576;2023-02-21T20:45:07;11.90;31.40
26035;DHT22;13809;48.632;11.576;2023-02-21T20:50:12;11.80;31.10
26035;DHT22;13809;48.632;11.576;2023-02-21T20:55:17;11.80;31.10
26035;DHT22;13809;48.632;11.576;2023-02-21T21:00:23;11.70;31.30
26035;DHT22;13809;48.632;11.576;2023-02-21T21:05:31;11.70;31.30
26035;DHT22;13809;48.632;11.576;2023-02-21T21:10:35;11.60;31.20
26035;DHT22;13809;48.632;11.576;2023-02-21T21:15:39;11.60;31.30
26035;DHT22;13809;48.632;11.576;2023-02-21T21:20:43;11.60;31.20
26035;DHT22;13809;48.632;11.576;2023-02-21T21:25:47;11.50;31.10
26035;DHT22;13809;48.632;11.576;2023-02-21T21:30:50;11.40;31.20
26035;DHT22;13809;48.632;11.576;2023-02-21T21:35:53;11.30;31.20
26035;DHT22;13809;48.632;11.576;2023-02-21T21:41:00;11.30;31.50
26035;DHT22;13809;48.632;11.576;2023-02-21T21:46:14;11.20;31.40
26035;DHT22;13809;48.632;11.576;2023-02-21T21:51:17;11.20;31.20
26035;DHT22;13809;48.632;11.576;2023-02-21T21:56:23;11.10;31.20
26035;DHT22;13809;48.632;11.576;2023-02-21T22:01:28;11.00;31.40
26035;DHT22;13809;48.632;11.576;2023-02-21T22:06:31;10.90;31.10
26035;DHT22;13809;48.632;11.576;2023-02-21T22:11:36;10.70;31.30
26035;DHT22;13809;48.632;11.576;2023-02-21T22:16:40;10.60;31.70
26035;DHT22;13809;48.632;11.576;2023-02-21T22:21:44;10.60;31.80
26035;DHT22;13809;48.632;11.576;2023-02-21T22:26:50;10.60;31.70
26035;DHT22;13809;48.632;11.576;2023-02-21T22:31:53;10.50;31.80
26035;DHT22;13809;48.632;11.576;2023-02-21T22:36:57;10.40;31.60
26035;DHT22;13809;48.632;11.576;2023-02-21T22:42:01;10.30;31.60
26035;DHT22;13809;48.632;11.576;2023-02-21T22:47:10;10.20;31.80
26035;DHT22;13809;48.632;11.576;2023-02-21T22:52:13;10.10;31.70
26035;DHT22;13809;48.632;11.576;2023-02-21T22:57:17;10.10;31.80
26035;DHT22;13809;48.632;11.576;2023-02-21T23:02:20;10.00;32.00
26035;DHT22;13809;48.632;11.576;2023-02-21T23:07:24;9.90;32.60
26035;DHT22;13809;48.632;11.576;2023-02-21T23:12:28;9.80;32.60
26035;DHT22;13809;48.632;11.576;2023-02-21T23:17:32;9.70;32.90
26035;DHT22;13809;48.632;11.576;2023-02-21T23:22:35;9.60;32.80
26035;DHT22;13809;48.632;11.576;2023-02-21T23:27:39;9.60;32.90
26035;DHT22;13809;48.632;11.576;2023-02-21T23:32:42;9.50;33.20
26035;DHT22;13809;48.632;11.576;2023-02-21T23:37:46;9.40;33.10
26035;DHT22;13809;48.632;11.576;2023-02-21T23:42:52;9.40;33.20
26035;DHT22;13809;48.632;11.576;2023-02-21T23:47:56;9.40;33.60
26035;DHT22;13809;48.632;11.576;2023-02-21T23:52:59;9.40;33.30
26035;DHT22;13809;48.632;11.576;2023-02-21T23:58:04;9.40;33.30
